Portada
METAR-TAF:

METAR-TAF

Aeroports :

Tinian, Illes Mariannes, Estats Units d'Amèrica

latitud: 14-59N, longitud: 145-37E, altitud: 82 m

Observació

L'informe es va fer fa 8 hores i 29 minuts, a les 08:52 UTC
Vent 11 kt del Est
Temperatura 28°C
Humitat 84%
Pressió 1010 hPa
Visibilitat: 11.3 km
Núvols disperses a una alçada de 1500 ft
Núvols disperses a una alçada de 3000 ft
Cel ennuvolat a una alçada de 10000 ft

METAR: PGWT 080852Z 08011KT 7SM SCT015 SCT030 BKN100 28/25 A2983 RMK LAST

Hora: 03:21 (17:21 UTC)

Pronòstic

L'informe es va fer fa 11 hores i 26 minuts, a les 05:55 UTC
Pronòstic vàlid del 08 a les 06 UTC al 09 a les 06 UTC
Vent 17 kt del Est
Visibilitat: 10 km
Núvols disperses a una alçada de 1800 ft
A partir de les 08 a les 1100 UTC
Vent 11 kt del Est
Visibilitat: 10 km
Escasses núvols a una alçada de 1800 ft
xàfecs en les proximitats

TAF: PGWT 080555Z 0806/0906 09017KT P6SM SCT018 FM081100 08011KT P6SM VCSH FEW018

Observacions i pronòstics meteorològics de més de 4000 aeroports (METAR i TAF).

Les estacions disponibles són els punts grocs i vermells al mapa.

Posi el ratolí al punt desitjat per veure el nom de l'estació.

Feu clic per veure les observacions i els pronòstics meteorològics.

Per canviar el mapa: feu clic els botons verds amb una creu de color negre per apropar; al botó verd amb un guió per allunyar la imatge; o en les fletxes verdes per a mapes adjacents.


METAR-TAF: